aviador You're here:

KAXN Decoded Metar

ALEXANDRIA in MN, USA
Report Time2018-07-22 23:53:00
UTC Time2018-07-23 00:15:59
Flight Rules vfr VFR
Wind110° at 07 kt
W.Decomp.*RWY 13: 6.4 kt HW 2.8 kt LCW
RWY 04: 2.8 kt HW 6.4 kt RCW
W.Rank110° ranks 18
Current wind is below 110° avg. (8.3)
Visibility9999 m
Phenomena:N/A
Clouds:N/A
Expected CloudBase > 4,000 ft AGL from Temp-Dew spread
CeilingNone
Temp27°C (ISA +15)
Dew Point17°C (54% RH)
Heat Index27.7°C
AAT26.8°C
QNH1018 hPa
Density Alt3,222 ft
Elevation1,421 ft
Report Wrong Elevation
Raw Report
KAXN 222353Z AUTO 11007KT 10SM CLR 27/17 A3007 RMK AO2 SLP177
T02670172 10278 20239 56009=

Extra information for KAXN:More info

Metar Taf Metar & Taf Last 4 Metars F.Rules Stats Wind Profile Meteogram Temp Stats Airport Information Weather charts Add Link Nearby VenuesMetar ALERT Operation Metar Decoded Social comments

AIRNAV info for KAXN